sensor_id;sensor_type;location;lat;lon;timestamp;pressure;altitude;pressure_sealevel;temperature;humidity
36192;BME280;22233;42.708;23.360;2023-07-29T00:01:51;95289.34;;;21.43;52.79
36192;BME280;22233;42.708;23.360;2023-07-29T00:04:17;95274.19;;;21.19;52.85
36192;BME280;22233;42.708;23.360;2023-07-29T00:06:42;95287.28;;;21.37;52.89
36192;BME280;22233;42.708;23.360;2023-07-29T00:09:08;95277.34;;;21.25;53.07
36192;BME280;22233;42.708;23.360;2023-07-29T00:11:33;95287.69;;;20.80;54.19
36192;BME280;22233;42.708;23.360;2023-07-29T00:14:02;95295.28;;;20.90;54.24
36192;BME280;22233;42.708;23.360;2023-07-29T00:16:28;95282.97;;;20.77;53.99
36192;BME280;22233;42.708;23.360;2023-07-29T00:18:53;95296.44;;;20.85;53.75
36192;BME280;22233;42.708;23.360;2023-07-29T00:21:18;95286.16;;;20.86;54.11
36192;BME280;22233;42.708;23.360;2023-07-29T00:23:45;95280.63;;;20.82;53.82
36192;BME280;22233;42.708;23.360;2023-07-29T00:26:10;95279.88;;;20.85;54.12
36192;BME280;22233;42.708;23.360;2023-07-29T00:28:35;95267.53;;;20.72;54.09
36192;BME280;22233;42.708;23.360;2023-07-29T00:31:01;95273.41;;;20.70;54.19
36192;BME280;22233;42.708;23.360;2023-07-29T00:33:27;95284.63;;;20.92;53.61
36192;BME280;22233;42.708;23.360;2023-07-29T00:35:52;95259.38;;;20.90;53.52
36192;BME280;22233;42.708;23.360;2023-07-29T00:38:18;95279.59;;;21.01;53.36
36192;BME280;22233;42.708;23.360;2023-07-29T00:40:43;95256.25;;;20.91;53.42
36192;BME280;22233;42.708;23.360;2023-07-29T00:43:09;95283.94;;;21.06;53.19
36192;BME280;22233;42.708;23.360;2023-07-29T00:45:34;95266.50;;;20.91;53.41
36192;BME280;22233;42.708;23.360;2023-07-29T00:48:00;95278.22;;;20.77;53.85
36192;BME280;22233;42.708;23.360;2023-07-29T00:50:27;95265.97;;;20.74;53.93
36192;BME280;22233;42.708;23.360;2023-07-29T00:52:54;95271.44;;;20.30;55.64
36192;BME280;22233;42.708;23.360;2023-07-29T00:55:19;95269.47;;;20.27;55.91
36192;BME280;22233;42.708;23.360;2023-07-29T00:57:45;95275.03;;;20.30;55.36
36192;BME280;22233;42.708;23.360;2023-07-29T01:00:14;95268.97;;;20.18;56.00
36192;BME280;22233;42.708;23.360;2023-07-29T01:02:39;95275.22;;;20.11;56.41
36192;BME280;22233;42.708;23.360;2023-07-29T01:05:05;95253.41;;;19.99;56.24
36192;BME280;22233;42.708;23.360;2023-07-29T01:12:38;95250.47;;;19.81;57.32
36192;BME280;22233;42.708;23.360;2023-07-29T01:15:17;95267.47;;;19.86;57.05
36192;BME280;22233;42.708;23.360;2023-07-29T01:18:14;95270.69;;;19.95;56.67
36192;BME280;22233;42.708;23.360;2023-07-29T01:20:43;95274.41;;;19.46;58.13
36192;BME280;22233;42.708;23.360;2023-07-29T01:23:11;95261.81;;;19.75;56.99
36192;BME280;22233;42.708;23.360;2023-07-29T01:25:36;95240.22;;;19.51;57.61
36192;BME280;22233;42.708;23.360;2023-07-29T01:28:02;95266.56;;;19.48;57.93
36192;BME280;22233;42.708;23.360;2023-07-29T01:30:37;95274.19;;;19.89;57.63
36192;BME280;22233;42.708;23.360;2023-07-29T01:33:09;95271.78;;;19.87;57.13
36192;BME280;22233;42.708;23.360;2023-07-29T01:35:45;95265.72;;;20.08;56.90
36192;BME280;22233;42.708;23.360;2023-07-29T01:38:28;95251.19;;;20.11;56.55
36192;BME280;22233;42.708;23.360;2023-07-29T01:40:58;95267.69;;;20.08;57.01
36192;BME280;22233;42.708;23.360;2023-07-29T01:43:24;95264.50;;;20.06;57.18
36192;BME280;22233;42.708;23.360;2023-07-29T01:45:51;95262.09;;;20.01;57.33
36192;BME280;22233;42.708;23.360;2023-07-29T01:48:16;95266.16;;;20.14;56.67
36192;BME280;22233;42.708;23.360;2023-07-29T01:50:42;95268.91;;;20.14;56.59
36192;BME280;22233;42.708;23.360;2023-07-29T01:53:08;95269.69;;;20.11;56.56
36192;BME280;22233;42.708;23.360;2023-07-29T01:55:33;95268.88;;;20.07;56.63
36192;BME280;22233;42.708;23.360;2023-07-29T01:57:58;95253.28;;;19.88;57.16
36192;BME280;22233;42.708;23.360;2023-07-29T02:00:24;95262.22;;;19.74;57.02
36192;BME280;22233;42.708;23.360;2023-07-29T02:02:49;95251.91;;;19.71;56.91
36192;BME280;22233;42.708;23.360;2023-07-29T02:05:15;95283.94;;;19.83;56.98
36192;BME280;22233;42.708;23.360;2023-07-29T02:07:40;95277.34;;;19.91;57.37
36192;BME280;22233;42.708;23.360;2023-07-29T02:10:06;95270.88;;;19.76;57.80
36192;BME280;22233;42.708;23.360;2023-07-29T02:12:32;95275.97;;;19.74;58.11
36192;BME280;22233;42.708;23.360;2023-07-29T02:14:57;95270.63;;;19.88;57.66
36192;BME280;22233;42.708;23.360;2023-07-29T02:17:23;95268.78;;;20.00;56.94
36192;BME280;22233;42.708;23.360;2023-07-29T02:19:48;95282.97;;;20.02;57.51
36192;BME280;22233;42.708;23.360;2023-07-29T02:22:15;95282.16;;;19.98;57.53
36192;BME280;22233;42.708;23.360;2023-07-29T02:24:40;95275.22;;;19.77;57.90
36192;BME280;22233;42.708;23.360;2023-07-29T02:27:06;95289.63;;;19.67;58.34
36192;BME280;22233;42.708;23.360;2023-07-29T02:29:31;95283.47;;;19.77;58.38
36192;BME280;22233;42.708;23.360;2023-07-29T02:31:58;95281.91;;;19.76;58.02
36192;BME280;22233;42.708;23.360;2023-07-29T02:34:23;95256.22;;;19.38;58.41
36192;BME280;22233;42.708;23.360;2023-07-29T02:36:49;95286.75;;;19.29;58.96
36192;BME280;22233;42.708;23.360;2023-07-29T02:39:14;95291.28;;;19.14;59.88
36192;BME280;22233;42.708;23.360;2023-07-29T02:41:39;95287.59;;;19.30;59.49
36192;BME280;22233;42.708;23.360;2023-07-29T02:44:05;95288.53;;;19.14;59.77
36192;BME280;22233;42.708;23.360;2023-07-29T02:46:31;95288.84;;;19.09;59.63
36192;BME280;22233;42.708;23.360;2023-07-29T02:48:56;95280.34;;;18.91;59.92
36192;BME280;22233;42.708;23.360;2023-07-29T02:51:22;95297.50;;;19.08;59.56
36192;BME280;22233;42.708;23.360;2023-07-29T02:53:47;95289.59;;;19.06;59.15
36192;BME280;22233;42.708;23.360;2023-07-29T02:56:13;95301.25;;;18.96;59.67
36192;BME280;22233;42.708;23.360;2023-07-29T02:58:38;95278.06;;;18.74;59.32
36192;BME280;22233;42.708;23.360;2023-07-29T03:01:05;95286.63;;;18.92;59.61
36192;BME280;22233;42.708;23.360;2023-07-29T03:03:31;95282.34;;;18.71;59.27
36192;BME280;22233;42.708;23.360;2023-07-29T03:06:04;95303.44;;;18.87;59.62
36192;BME280;22233;42.708;23.360;2023-07-29T03:08:30;95298.25;;;18.59;59.84
36192;BME280;22233;42.708;23.360;2023-07-29T03:10:56;95310.72;;;18.75;59.77
36192;BME280;22233;42.708;23.360;2023-07-29T03:13:22;95295.97;;;18.64;59.81
36192;BME280;22233;42.708;23.360;2023-07-29T03:15:47;95308.19;;;18.67;59.91
36192;BME280;22233;42.708;23.360;2023-07-29T03:18:14;95311.81;;;18.48;60.30
36192;BME280;22233;42.708;23.360;2023-07-29T03:20:39;95315.97;;;18.38;60.70
36192;BME280;22233;42.708;23.360;2023-07-29T03:23:04;95317.00;;;18.10;61.77
36192;BME280;22233;42.708;23.360;2023-07-29T03:25:30;95308.81;;;18.33;60.79
36192;BME280;22233;42.708;23.360;2023-07-29T03:27:55;95296.22;;;18.55;60.00
36192;BME280;22233;42.708;23.360;2023-07-29T03:30:22;95312.84;;;18.63;59.69
36192;BME280;22233;42.708;23.360;2023-07-29T03:32:48;95310.78;;;18.56;60.15
36192;BME280;22233;42.708;23.360;2023-07-29T03:35:14;95301.97;;;18.24;60.85
36192;BME280;22233;42.708;23.360;2023-07-29T03:37:39;95316.44;;;17.82;62.34
36192;BME280;22233;42.708;23.360;2023-07-29T03:40:06;95315.28;;;18.02;61.86
36192;BME280;22233;42.708;23.360;2023-07-29T03:42:32;95307.84;;;18.03;61.95
36192;BME280;22233;42.708;23.360;2023-07-29T03:44:57;95318.91;;;18.06;61.47
36192;BME280;22233;42.708;23.360;2023-07-29T03:47:23;95291.94;;;17.73;62.47
36192;BME280;22233;42.708;23.360;2023-07-29T03:49:48;95304.28;;;18.22;61.24
36192;BME280;22233;42.708;23.360;2023-07-29T03:52:14;95318.28;;;18.36;61.12
36192;BME280;22233;42.708;23.360;2023-07-29T03:54:39;95315.97;;;18.38;60.88
36192;BME280;22233;42.708;23.360;2023-07-29T03:57:05;95300.31;;;18.42;61.01
36192;BME280;22233;42.708;23.360;2023-07-29T03:59:30;95305.13;;;18.49;60.63
36192;BME280;22233;42.708;23.360;2023-07-29T04:01:56;95313.09;;;18.54;60.56
36192;BME280;22233;42.708;23.360;2023-07-29T04:04:21;95300.50;;;18.53;60.79
36192;BME280;22233;42.708;23.360;2023-07-29T04:06:46;95308.84;;;18.37;61.08
36192;BME280;22233;42.708;23.360;2023-07-29T04:09:12;95311.69;;;18.41;61.26
36192;BME280;22233;42.708;23.360;2023-07-29T04:11:38;95310.78;;;18.56;60.78
36192;BME280;22233;42.708;23.360;2023-07-29T04:14:03;95306.38;;;18.51;60.72
36192;BME280;22233;42.708;23.360;2023-07-29T04:16:29;95324.47;;;18.75;60.14
36192;BME280;22233;42.708;23.360;2023-07-29T04:18:54;95305.63;;;18.77;60.36
36192;BME280;22233;42.708;23.360;2023-07-29T04:21:20;95297.50;;;18.85;59.41
36192;BME280;22233;42.708;23.360;2023-07-29T04:23:45;95325.72;;;19.28;59.17
36192;BME280;22233;42.708;23.360;2023-07-29T04:26:10;95326.13;;;19.30;58.96
36192;BME280;22233;42.708;23.360;2023-07-29T04:28:36;95317.66;;;19.42;58.58
36192;BME280;22233;42.708;23.360;2023-07-29T04:31:01;95321.25;;;19.46;58.30
36192;BME280;22233;42.708;23.360;2023-07-29T04:33:29;95316.44;;;19.13;59.60
36192;BME280;22233;42.708;23.360;2023-07-29T04:35:54;95313.63;;;19.36;58.91
36192;BME280;22233;42.708;23.360;2023-07-29T04:38:20;95311.31;;;19.42;59.25
36192;BME280;22233;42.708;23.360;2023-07-29T04:40:45;95315.09;;;19.56;58.17
36192;BME280;22233;42.708;23.360;2023-07-29T04:43:10;95325.63;;;19.51;58.80
36192;BME280;22233;42.708;23.360;2023-07-29T04:45:36;95320.19;;;19.54;58.47
36192;BME280;22233;42.708;23.360;2023-07-29T04:48:07;95318.34;;;19.66;58.94
36192;BME280;22233;42.708;23.360;2023-07-29T04:50:32;95320.88;;;19.48;59.00
36192;BME280;22233;42.708;23.360;2023-07-29T04:52:57;95318.63;;;19.57;59.17
36192;BME280;22233;42.708;23.360;2023-07-29T04:55:23;95310.88;;;19.66;58.18
36192;BME280;22233;42.708;23.360;2023-07-29T04:57:48;95318.78;;;19.98;57.64
36192;BME280;22233;42.708;23.360;2023-07-29T05:00:14;95328.34;;;20.08;57.21
36192;BME280;22233;42.708;23.360;2023-07-29T05:02:39;95321.81;;;20.23;56.84
36192;BME280;22233;42.708;23.360;2023-07-29T05:05:05;95328.06;;;20.20;56.83
36192;BME280;22233;42.708;23.360;2023-07-29T05:07:30;95342.97;;;20.12;56.73
36192;BME280;22233;42.708;23.360;2023-07-29T05:09:56;95336.03;;;20.25;56.03
36192;BME280;22233;42.708;23.360;2023-07-29T05:12:21;95340.88;;;20.35;56.28
36192;BME280;22233;42.708;23.360;2023-07-29T05:14:47;95332.25;;;20.41;56.07
36192;BME280;22233;42.708;23.360;2023-07-29T05:17:13;95338.66;;;20.52;55.54
36192;BME280;22233;42.708;23.360;2023-07-29T05:19:38;95340.25;;;20.53;55.70
36192;BME280;22233;42.708;23.360;2023-07-29T05:22:04;95338.94;;;20.77;55.96
36192;BME280;22233;42.708;23.360;2023-07-29T05:24:29;95340.47;;;20.71;56.75
36192;BME280;22233;42.708;23.360;2023-07-29T05:26:55;95342.78;;;20.65;57.49
36192;BME280;22233;42.708;23.360;2023-07-29T05:29:20;95343.69;;;20.80;58.27
36192;BME280;22233;42.708;23.360;2023-07-29T05:31:45;95343.09;;;21.01;57.56
36192;BME280;22233;42.708;23.360;2023-07-29T05:34:11;95344.78;;;21.17;56.39
36192;BME280;22233;42.708;23.360;2023-07-29T05:36:36;95346.41;;;21.21;56.68
36192;BME280;22233;42.708;23.360;2023-07-29T05:39:01;95344.06;;;21.27;56.45
36192;BME280;22233;42.708;23.360;2023-07-29T05:41:27;95345.13;;;21.60;56.01
36192;BME280;22233;42.708;23.360;2023-07-29T05:43:54;95353.44;;;21.67;55.36
36192;BME280;22233;42.708;23.360;2023-07-29T05:46:19;95345.94;;;21.67;55.01
36192;BME280;22233;42.708;23.360;2023-07-29T05:48:44;95344.84;;;21.86;54.42
36192;BME280;22233;42.708;23.360;2023-07-29T05:51:10;95363.69;;;21.63;54.80
36192;BME280;22233;42.708;23.360;2023-07-29T05:53:35;95353.06;;;21.68;54.55
36192;BME280;22233;42.708;23.360;2023-07-29T05:56:01;95354.28;;;21.74;54.13
36192;BME280;22233;42.708;23.360;2023-07-29T05:58:26;95354.00;;;21.98;54.70
36192;BME280;22233;42.708;23.360;2023-07-29T06:00:52;95343.38;;;22.10;54.10
36192;BME280;22233;42.708;23.360;2023-07-29T06:03:17;95349.75;;;22.18;53.62
36192;BME280;22233;42.708;23.360;2023-07-29T06:05:42;95347.38;;;22.20;52.96
36192;BME280;22233;42.708;23.360;2023-07-29T06:08:08;95347.78;;;22.22;53.33
36192;BME280;22233;42.708;23.360;2023-07-29T06:10:36;95350.78;;;21.88;53.37
36192;BME280;22233;42.708;23.360;2023-07-29T06:13:01;95344.22;;;22.22;53.28
36192;BME280;22233;42.708;23.360;2023-07-29T06:15:27;95348.16;;;22.13;53.03
36192;BME280;22233;42.708;23.360;2023-07-29T06:17:53;95350.91;;;22.17;52.57
36192;BME280;22233;42.708;23.360;2023-07-29T06:20:18;95349.78;;;22.25;52.25
36192;BME280;22233;42.708;23.360;2023-07-29T06:22:44;95317.72;;;22.13;52.84
36192;BME280;22233;42.708;23.360;2023-07-29T06:25:09;95334.81;;;22.33;52.36
36192;BME280;22233;42.708;23.360;2023-07-29T06:27:34;95330.47;;;22.40;52.28
36192;BME280;22233;42.708;23.360;2023-07-29T06:30:00;95343.19;;;22.73;51.96
36192;BME280;22233;42.708;23.360;2023-07-29T06:32:26;95331.72;;;22.78;51.94
36192;BME280;22233;42.708;23.360;2023-07-29T06:34:51;95334.91;;;23.05;51.23
36192;BME280;22233;42.708;23.360;2023-07-29T06:37:19;95329.38;;;23.12;51.02
36192;BME280;22233;42.708;23.360;2023-07-29T06:39:44;95326.22;;;23.28;50.44
36192;BME280;22233;42.708;23.360;2023-07-29T06:42:09;95309.97;;;22.87;51.20
36192;BME280;22233;42.708;23.360;2023-07-29T06:44:35;95323.03;;;23.30;52.01
36192;BME280;22233;42.708;23.360;2023-07-29T06:47:00;95320.22;;;23.55;49.90
36192;BME280;22233;42.708;23.360;2023-07-29T06:49:26;95318.63;;;23.58;49.43
36192;BME280;22233;42.708;23.360;2023-07-29T06:51:51;95313.88;;;23.62;49.79
36192;BME280;22233;42.708;23.360;2023-07-29T06:54:16;95303.25;;;23.42;49.65
36192;BME280;22233;42.708;23.360;2023-07-29T06:56:42;95313.06;;;23.65;49.39
36192;BME280;22233;42.708;23.360;2023-07-29T06:59:08;95318.97;;;23.74;48.63
36192;BME280;22233;42.708;23.360;2023-07-29T07:01:34;95316.59;;;23.76;48.73
36192;BME280;22233;42.708;23.360;2023-07-29T07:03:59;95315.41;;;23.84;48.37
36192;BME280;22233;42.708;23.360;2023-07-29T07:06:25;95320.22;;;23.59;49.01
36192;BME280;22233;42.708;23.360;2023-07-29T07:08:51;95301.22;;;23.57;49.28
36192;BME280;22233;42.708;23.360;2023-07-29T07:11:17;95317.72;;;24.00;48.24
36192;BME280;22233;42.708;23.360;2023-07-29T07:13:43;95306.63;;;24.00;48.81
36192;BME280;22233;42.708;23.360;2023-07-29T07:16:08;95319.16;;;24.37;48.02
36192;BME280;22233;42.708;23.360;2023-07-29T07:18:33;95314.75;;;24.47;47.83
36192;BME280;22233;42.708;23.360;2023-07-29T07:20:59;95315.09;;;24.60;47.88
36192;BME280;22233;42.708;23.360;2023-07-29T07:23:24;95318.13;;;24.80;47.25
36192;BME280;22233;42.708;23.360;2023-07-29T07:25:49;95308.53;;;24.88;46.92
36192;BME280;22233;42.708;23.360;2023-07-29T07:28:15;95309.44;;;24.70;47.71
36192;BME280;22233;42.708;23.360;2023-07-29T07:30:41;95304.56;;;24.89;47.29
36192;BME280;22233;42.708;23.360;2023-07-29T07:33:06;95303.06;;;25.29;46.20
36192;BME280;22233;42.708;23.360;2023-07-29T07:35:32;95308.19;;;25.31;45.81
36192;BME280;22233;42.708;23.360;2023-07-29T07:37:57;95301.84;;;25.34;45.95
36192;BME280;22233;42.708;23.360;2023-07-29T07:40:24;95304.59;;;25.38;46.08
36192;BME280;22233;42.708;23.360;2023-07-29T07:42:50;95289.00;;;25.47;45.64
36192;BME280;22233;42.708;23.360;2023-07-29T07:45:15;95307.63;;;25.50;45.10
36192;BME280;22233;42.708;23.360;2023-07-29T07:47:42;95293.34;;;25.03;46.14
36192;BME280;22233;42.708;23.360;2023-07-29T07:50:07;95306.38;;;25.55;45.45
36192;BME280;22233;42.708;23.360;2023-07-29T07:52:33;95306.88;;;25.46;45.63
36192;BME280;22233;42.708;23.360;2023-07-29T07:54:58;95301.44;;;25.74;45.72
36192;BME280;22233;42.708;23.360;2023-07-29T07:57:23;95309.66;;;25.84;46.02
36192;BME280;22233;42.708;23.360;2023-07-29T07:59:49;95292.19;;;25.84;44.95
36192;BME280;22233;42.708;23.360;2023-07-29T08:02:15;95304.09;;;25.84;44.66
36192;BME280;22233;42.708;23.360;2023-07-29T08:04:41;95309.50;;;25.99;44.29
36192;BME280;22233;42.708;23.360;2023-07-29T08:07:06;95307.28;;;26.17;43.60
36192;BME280;22233;42.708;23.360;2023-07-29T08:09:32;95302.44;;;26.25;43.84
36192;BME280;22233;42.708;23.360;2023-07-29T08:11:57;95298.53;;;26.19;44.22
36192;BME280;22233;42.708;23.360;2023-07-29T08:14:22;95304.97;;;26.43;44.48
36192;BME280;22233;42.708;23.360;2023-07-29T08:16:48;95291.59;;;26.61;43.33
36192;BME280;22233;42.708;23.360;2023-07-29T08:19:13;95292.75;;;26.64;43.05
36192;BME280;22233;42.708;23.360;2023-07-29T08:21:38;95308.09;;;26.76;42.90
36192;BME280;22233;42.708;23.360;2023-07-29T08:24:04;95296.88;;;26.83;42.19
36192;BME280;22233;42.708;23.360;2023-07-29T08:26:29;95308.06;;;26.79;41.32
36192;BME280;22233;42.708;23.360;2023-07-29T08:28:55;95307.41;;;26.95;40.72
36192;BME280;22233;42.708;23.360;2023-07-29T08:31:20;95295.78;;;27.00;40.36
36192;BME280;22233;42.708;23.360;2023-07-29T08:33:46;95290.56;;;26.79;38.83
36192;BME280;22233;42.708;23.360;2023-07-29T08:36:11;95282.50;;;26.84;39.66
36192;BME280;22233;42.708;23.360;2023-07-29T08:38:36;95290.78;;;26.88;39.21
36192;BME280;22233;42.708;23.360;2023-07-29T08:43:46;95283.44;;;26.74;40.39
36192;BME280;22233;42.708;23.360;2023-07-29T08:46:15;95288.09;;;27.08;39.17
36192;BME280;22233;42.708;23.360;2023-07-29T08:48:42;95279.25;;;27.13;38.60
36192;BME280;22233;42.708;23.360;2023-07-29T08:51:09;95284.25;;;27.25;39.16
36192;BME280;22233;42.708;23.360;2023-07-29T08:53:36;95275.06;;;27.48;38.67
36192;BME280;22233;42.708;23.360;2023-07-29T08:56:02;95277.97;;;27.65;37.91
36192;BME280;22233;42.708;23.360;2023-07-29T08:58:28;95271.19;;;28.06;37.26
36192;BME280;22233;42.708;23.360;2023-07-29T09:00:53;95260.94;;;28.19;37.09
36192;BME280;22233;42.708;23.360;2023-07-29T09:03:20;95275.09;;;28.28;36.62
36192;BME280;22233;42.708;23.360;2023-07-29T09:05:45;95264.16;;;28.18;36.50
36192;BME280;22233;42.708;23.360;2023-07-29T09:08:11;95252.00;;;28.08;36.27
36192;BME280;22233;42.708;23.360;2023-07-29T09:10:37;95261.13;;;28.28;34.23
36192;BME280;22233;42.708;23.360;2023-07-29T09:13:03;95240.13;;;28.40;35.32
36192;BME280;22233;42.708;23.360;2023-07-29T09:15:30;95252.81;;;28.25;33.48
36192;BME280;22233;42.708;23.360;2023-07-29T09:17:57;95260.34;;;28.64;34.32
36192;BME280;22233;42.708;23.360;2023-07-29T09:20:28;95253.22;;;28.80;33.79
36192;BME280;22233;42.708;23.360;2023-07-29T09:22:55;95241.97;;;28.47;34.45
36192;BME280;22233;42.708;23.360;2023-07-29T09:25:27;95246.34;;;28.48;34.52
36192;BME280;22233;42.708;23.360;2023-07-29T09:27:58;95239.06;;;28.87;34.33
36192;BME280;22233;42.708;23.360;2023-07-29T09:30:24;95238.19;;;29.23;33.36
36192;BME280;22233;42.708;23.360;2023-07-29T09:32:58;95235.94;;;29.47;33.09
36192;BME280;22233;42.708;23.360;2023-07-29T09:35:24;95220.06;;;29.44;33.43
36192;BME280;22233;42.708;23.360;2023-07-29T09:37:51;95238.94;;;29.69;32.89
36192;BME280;22233;42.708;23.360;2023-07-29T09:40:17;95222.38;;;30.04;32.79
36192;BME280;22233;42.708;23.360;2023-07-29T09:42:54;95225.50;;;29.93;32.02
36192;BME280;22233;42.708;23.360;2023-07-29T09:45:25;95217.50;;;29.50;32.37
36192;BME280;22233;42.708;23.360;2023-07-29T09:47:54;95225.41;;;29.97;32.53
36192;BME280;22233;42.708;23.360;2023-07-29T09:50:25;95218.84;;;30.29;31.50
36192;BME280;22233;42.708;23.360;2023-07-29T09:52:51;95222.78;;;30.44;31.02
36192;BME280;22233;42.708;23.360;2023-07-29T09:55:18;95214.38;;;30.32;30.48
36192;BME280;22233;42.708;23.360;2023-07-29T09:57:44;95222.91;;;30.41;30.99
36192;BME280;22233;42.708;23.360;2023-07-29T10:00:13;95223.69;;;30.54;30.45
36192;BME280;22233;42.708;23.360;2023-07-29T10:02:43;95202.75;;;30.59;30.42
36192;BME280;22233;42.708;23.360;2023-07-29T10:05:09;95204.84;;;30.80;30.65
36192;BME280;22233;42.708;23.360;2023-07-29T10:07:39;95211.97;;;31.20;29.93
36192;BME280;22233;42.708;23.360;2023-07-29T10:10:06;95204.97;;;31.37;30.95
36192;BME280;22233;42.708;23.360;2023-07-29T10:12:32;95216.19;;;31.37;31.27
36192;BME280;22233;42.708;23.360;2023-07-29T10:15:07;95209.91;;;31.33;30.69
36192;BME280;22233;42.708;23.360;2023-07-29T10:17:34;95205.94;;;31.43;30.24
36192;BME280;22233;42.708;23.360;2023-07-29T10:20:00;95213.38;;;31.72;29.53
36192;BME280;22233;42.708;23.360;2023-07-29T10:22:41;95202.91;;;31.51;29.52
36192;BME280;22233;42.708;23.360;2023-07-29T10:25:09;95192.44;;;31.73;29.60
36192;BME280;22233;42.708;23.360;2023-07-29T10:27:46;95177.44;;;31.67;28.95
36192;BME280;22233;42.708;23.360;2023-07-29T10:30:12;95190.78;;;31.76;28.31
36192;BME280;22233;42.708;23.360;2023-07-29T10:32:42;95185.75;;;31.71;28.66
36192;BME280;22233;42.708;23.360;2023-07-29T10:35:12;95170.78;;;31.96;28.62
36192;BME280;22233;42.708;23.360;2023-07-29T10:37:38;95169.97;;;32.17;28.33
36192;BME280;22233;42.708;23.360;2023-07-29T10:40:09;95174.63;;;32.42;27.67
36192;BME280;22233;42.708;23.360;2023-07-29T10:42:37;95178.19;;;32.74;28.30
36192;BME280;22233;42.708;23.360;2023-07-29T10:45:18;95171.50;;;32.90;27.32
36192;BME280;22233;42.708;23.360;2023-07-29T10:47:44;95159.09;;;32.69;27.11
36192;BME280;22233;42.708;23.360;2023-07-29T10:50:21;95155.66;;;32.65;27.92
36192;BME280;22233;42.708;23.360;2023-07-29T10:52:51;95132.69;;;32.67;27.64
36192;BME280;22233;42.708;23.360;2023-07-29T10:55:36;95153.22;;;32.95;27.52
36192;BME280;22233;42.708;23.360;2023-07-29T10:58:15;95150.88;;;32.84;27.91
36192;BME280;22233;42.708;23.360;2023-07-29T11:00:45;95157.81;;;33.20;28.29
36192;BME280;22233;42.708;23.360;2023-07-29T11:03:12;95153.13;;;33.45;27.26
36192;BME280;22233;42.708;23.360;2023-07-29T11:05:46;95149.69;;;33.59;27.81
36192;BME280;22233;42.708;23.360;2023-07-29T11:08:16;95149.38;;;33.66;25.88
36192;BME280;22233;42.708;23.360;2023-07-29T11:10:43;95149.06;;;33.64;25.56
36192;BME280;22233;42.708;23.360;2023-07-29T11:13:10;95145.00;;;33.65;25.82
36192;BME280;22233;42.708;23.360;2023-07-29T11:15:38;95148.09;;;33.86;26.00
36192;BME280;22233;42.708;23.360;2023-07-29T11:18:05;95146.56;;;33.38;25.12
36192;BME280;22233;42.708;23.360;2023-07-29T11:20:32;95122.63;;;32.47;26.37
36192;BME280;22233;42.708;23.360;2023-07-29T11:23:00;95138.38;;;33.03;26.05
36192;BME280;22233;42.708;23.360;2023-07-29T11:25:27;95135.41;;;33.07;26.10
36192;BME280;22233;42.708;23.360;2023-07-29T11:27:55;95130.91;;;33.10;25.98
36192;BME280;22233;42.708;23.360;2023-07-29T11:30:21;95143.88;;;33.44;26.27
36192;BME280;22233;42.708;23.360;2023-07-29T11:32:48;95136.25;;;33.63;26.16
36192;BME280;22233;42.708;23.360;2023-07-29T11:35:18;95106.97;;;33.79;25.82
36192;BME280;22233;42.708;23.360;2023-07-29T11:37:45;95123.81;;;33.88;25.32
36192;BME280;22233;42.708;23.360;2023-07-29T11:40:15;95126.53;;;33.46;25.28
36192;BME280;22233;42.708;23.360;2023-07-29T11:42:40;95134.00;;;32.34;26.72
36192;BME280;22233;42.708;23.360;2023-07-29T11:45:06;95118.84;;;33.00;25.85
36192;BME280;22233;42.708;23.360;2023-07-29T11:47:33;95112.91;;;33.44;26.54
36192;BME280;22233;42.708;23.360;2023-07-29T11:50:03;95114.63;;;33.69;25.43
36192;BME280;22233;42.708;23.360;2023-07-29T11:52:29;95118.09;;;33.36;25.42
36192;BME280;22233;42.708;23.360;2023-07-29T11:54:56;95115.41;;;33.70;25.18
36192;BME280;22233;42.708;23.360;2023-07-29T11:57:23;95115.88;;;33.77;24.75
36192;BME280;22233;42.708;23.360;2023-07-29T11:59:49;95103.94;;;33.92;25.74
36192;BME280;22233;42.708;23.360;2023-07-29T12:02:16;95119.00;;;34.31;24.42
36192;BME280;22233;42.708;23.360;2023-07-29T12:04:43;95102.09;;;34.31;24.20
36192;BME280;22233;42.708;23.360;2023-07-29T12:07:09;95109.59;;;34.34;24.91
36192;BME280;22233;42.708;23.360;2023-07-29T12:09:35;95106.50;;;34.56;24.29
36192;BME280;22233;42.708;23.360;2023-07-29T12:12:05;95086.53;;;34.45;23.75
36192;BME280;22233;42.708;23.360;2023-07-29T12:14:31;95096.03;;;34.81;23.91
36192;BME280;22233;42.708;23.360;2023-07-29T12:17:00;95084.09;;;34.86;24.32
36192;BME280;22233;42.708;23.360;2023-07-29T12:19:34;95099.94;;;35.08;24.33
36192;BME280;22233;42.708;23.360;2023-07-29T12:22:01;95099.34;;;35.04;23.75
36192;BME280;22233;42.708;23.360;2023-07-29T12:24:26;95094.63;;;35.00;23.46
36192;BME280;22233;42.708;23.360;2023-07-29T12:26:52;95067.16;;;34.86;23.65
36192;BME280;22233;42.708;23.360;2023-07-29T12:29:18;95082.31;;;35.13;23.59
36192;BME280;22233;42.708;23.360;2023-07-29T12:31:49;95095.03;;;35.32;24.01
36192;BME280;22233;42.708;23.360;2023-07-29T12:34:21;95086.63;;;35.23;24.09
36192;BME280;22233;42.708;23.360;2023-07-29T12:36:48;95080.41;;;34.95;24.30
36192;BME280;22233;42.708;23.360;2023-07-29T12:39:22;95073.81;;;34.98;23.62
36192;BME280;22233;42.708;23.360;2023-07-29T12:41:49;95078.28;;;34.56;23.44
36192;BME280;22233;42.708;23.360;2023-07-29T12:44:15;95066.44;;;34.76;22.98
36192;BME280;22233;42.708;23.360;2023-07-29T12:46:40;95071.66;;;34.93;23.67
36192;BME280;22233;42.708;23.360;2023-07-29T12:49:06;95077.41;;;35.23;23.07
36192;BME280;22233;42.708;23.360;2023-07-29T12:51:31;95088.97;;;35.25;23.20
36192;BME280;22233;42.708;23.360;2023-07-29T12:53:57;95079.66;;;35.09;23.61
36192;BME280;22233;42.708;23.360;2023-07-29T12:56:22;95074.28;;;35.20;23.67